Monterey, Tennessee
Current Conditions -  °F | °C
As of 6:35 AM on Monday 24 Nov 2014 (Local Time) from KSRB Reporting Station
Scattered Clouds Scattered Clouds  
Wind Chill: 61°   Ceiling: Unl
Heat Index: 61°   Visibility: 10mi
Dew Point: 54°   Wind: 18mph
Humidity: 77%   Direction: 230°SW
Pressure: 29.58"   Gusts: NA
Location:  36.15°N, 85.27°W
Report Text: KSRB 241235Z AUTO 23016KT 10SM FEW034 SCT041 SCT050 16/12 A2958 RMK
Loading
Personal Weather Stations






























Interactive Weather Map New forecast layout! Learn more

10-Day Weather Forecast

Advertisements
Track Severe Weather on mobile